sensor_id;sensor_type;location;lat;lon;timestamp;pressure;altitude;pressure_sealevel;temperature;humidity
3434;BME280;1730;41.932;25.548;2023-02-14T00:02:19;100449.91;;;-0.27;100.00
3434;BME280;1730;41.932;25.548;2023-02-14T00:04:44;100387.44;;;-0.56;100.00
3434;BME280;1730;41.932;25.548;2023-02-14T00:07:12;100261.37;;;-1.05;100.00
3434;BME280;1730;41.932;25.548;2023-02-14T00:09:38;100564.44;;;0.93;100.00
3434;BME280;1730;41.932;25.548;2023-02-14T00:12:04;100645.81;;;0.94;100.00
3434;BME280;1730;41.932;25.548;2023-02-14T00:14:29;100399.78;;;-0.10;100.00
3434;BME280;1730;41.932;25.548;2023-02-14T00:17:14;100454.44;;;0.36;100.00
3434;BME280;1730;41.932;25.548;2023-02-14T00:19:39;100583.75;;;1.18;100.00
3434;BME280;1730;41.932;25.548;2023-02-14T00:22:06;100635.12;;;0.96;100.00
3434;BME280;1730;41.932;25.548;2023-02-14T00:24:32;100605.94;;;0.96;100.00
3434;BME280;1730;41.932;25.548;2023-02-14T00:26:58;100227.34;;;-1.14;100.00
3434;BME280;1730;41.932;25.548;2023-02-14T00:29:27;100589.28;;;0.92;100.00
3434;BME280;1730;41.932;25.548;2023-02-14T00:31:53;100584.06;;;0.89;100.00
3434;BME280;1730;41.932;25.548;2023-02-14T00:34:19;100594.62;;;0.90;100.00
3434;BME280;1730;41.932;25.548;2023-02-14T00:36:45;100589.69;;;0.81;100.00
3434;BME280;1730;41.932;25.548;2023-02-14T00:39:13;100603.09;;;0.78;100.00
3434;BME280;1730;41.932;25.548;2023-02-14T00:41:40;100530.56;;;0.34;100.00
3434;BME280;1730;41.932;25.548;2023-02-14T00:44:07;100605.63;;;0.81;100.00
3434;BME280;1730;41.932;25.548;2023-02-14T00:46:33;100601.41;;;0.76;100.00
3434;BME280;1730;41.932;25.548;2023-02-14T00:48:59;100579.06;;;0.60;100.00
3434;BME280;1730;41.932;25.548;2023-02-14T00:51:24;100573.13;;;0.75;100.00
3434;BME280;1730;41.932;25.548;2023-02-14T00:53:50;100595.03;;;1.02;100.00
3434;BME280;1730;41.932;25.548;2023-02-14T00:56:17;100563.66;;;0.69;100.00
3434;BME280;1730;41.932;25.548;2023-02-14T00:58:44;100442.91;;;-0.06;100.00
3434;BME280;1730;41.932;25.548;2023-02-14T01:01:11;100588.28;;;0.95;100.00
3434;BME280;1730;41.932;25.548;2023-02-14T01:03:37;100597.66;;;0.60;100.00
3434;BME280;1730;41.932;25.548;2023-02-14T01:06:04;100590.03;;;0.51;100.00
3434;BME280;1730;41.932;25.548;2023-02-14T01:08:30;100532.09;;;0.40;100.00
3434;BME280;1730;41.932;25.548;2023-02-14T01:10:55;100584.81;;;0.71;100.00
3434;BME280;1730;41.932;25.548;2023-02-14T01:13:22;100457.00;;;-0.27;100.00
3434;BME280;1730;41.932;25.548;2023-02-14T01:15:49;100580.84;;;0.59;100.00
3434;BME280;1730;41.932;25.548;2023-02-14T01:18:17;100579.78;;;0.41;100.00
3434;BME280;1730;41.932;25.548;2023-02-14T01:20:43;100580.94;;;0.13;100.00
3434;BME280;1730;41.932;25.548;2023-02-14T01:23:10;100404.62;;;-0.91;100.00
3434;BME280;1730;41.932;25.548;2023-02-14T01:25:36;100594.97;;;0.15;100.00
3434;BME280;1730;41.932;25.548;2023-02-14T01:28:03;99948.59;;;-3.90;100.00
3434;BME280;1730;41.932;25.548;2023-02-14T01:30:29;100586.16;;;-0.34;100.00
3434;BME280;1730;41.932;25.548;2023-02-14T01:32:54;100522.41;;;-1.02;100.00
3434;BME280;1730;41.932;25.548;2023-02-14T01:35:20;100565.03;;;-0.35;100.00
3434;BME280;1730;41.932;25.548;2023-02-14T01:37:45;100377.22;;;-1.62;100.00
3434;BME280;1730;41.932;25.548;2023-02-14T01:40:12;100361.22;;;-1.84;100.00
3434;BME280;1730;41.932;25.548;2023-02-14T01:42:38;100369.81;;;-1.77;100.00
3434;BME280;1730;41.932;25.548;2023-02-14T01:45:08;100587.84;;;-0.56;100.00
3434;BME280;1730;41.932;25.548;2023-02-14T01:47:40;100586.75;;;-0.75;100.00
3434;BME280;1730;41.932;25.548;2023-02-14T01:50:14;100590.75;;;-0.88;100.00
3434;BME280;1730;41.932;25.548;2023-02-14T01:53:10;100206.72;;;-3.32;100.00
3434;BME280;1730;41.932;25.548;2023-02-14T01:55:42;100590.31;;;-0.76;100.00
3434;BME280;1730;41.932;25.548;2023-02-14T01:58:14;100586.25;;;-0.86;100.00
3434;BME280;1730;41.932;25.548;2023-02-14T02:00:43;100442.66;;;-1.69;100.00
3434;BME280;1730;41.932;25.548;2023-02-14T02:05:53;100602.06;;;-0.59;100.00
3434;BME280;1730;41.932;25.548;2023-02-14T02:08:20;100596.25;;;-0.70;100.00
3434;BME280;1730;41.932;25.548;2023-02-14T02:10:46;100629.06;;;-0.74;100.00
3434;BME280;1730;41.932;25.548;2023-02-14T02:13:18;100233.94;;;-2.74;100.00
3434;BME280;1730;41.932;25.548;2023-02-14T02:23:52;100581.44;;;-0.49;100.00
3434;BME280;1730;41.932;25.548;2023-02-14T02:32:37;100574.28;;;-0.72;100.00
3434;BME280;1730;41.932;25.548;2023-02-14T02:41:08;100555.22;;;-0.83;100.00
3434;BME280;1730;41.932;25.548;2023-02-14T02:55:19;100555.25;;;-1.09;100.00
3434;BME280;1730;41.932;25.548;2023-02-14T02:57:49;100501.84;;;-1.20;100.00
3434;BME280;1730;41.932;25.548;2023-02-14T03:00:16;100553.16;;;-1.00;100.00
3434;BME280;1730;41.932;25.548;2023-02-14T03:02:46;100521.69;;;-1.07;100.00
3434;BME280;1730;41.932;25.548;2023-02-14T03:05:32;100555.09;;;-0.54;100.00
3434;BME280;1730;41.932;25.548;2023-02-14T03:08:00;100505.66;;;-0.78;100.00
3434;BME280;1730;41.932;25.548;2023-02-14T03:10:29;100463.09;;;-0.97;100.00
3434;BME280;1730;41.932;25.548;2023-02-14T03:13:27;100371.75;;;-1.83;100.00
3434;BME280;1730;41.932;25.548;2023-02-14T03:18:56;100532.19;;;-0.79;100.00
3434;BME280;1730;41.932;25.548;2023-02-14T03:24:17;100566.47;;;-1.01;100.00
3434;BME280;1730;41.932;25.548;2023-02-14T03:26:53;100531.72;;;-0.92;100.00
3434;BME280;1730;41.932;25.548;2023-02-14T03:29:35;100526.06;;;-1.06;100.00
3434;BME280;1730;41.932;25.548;2023-02-14T03:37:19;100569.25;;;-0.79;100.00
3434;BME280;1730;41.932;25.548;2023-02-14T03:40:10;100429.16;;;-1.61;100.00
3434;BME280;1730;41.932;25.548;2023-02-14T03:42:43;100530.72;;;-0.63;100.00
3434;BME280;1730;41.932;25.548;2023-02-14T03:45:17;100520.84;;;-0.58;100.00
3434;BME280;1730;41.932;25.548;2023-02-14T03:47:45;100520.09;;;-0.62;100.00
3434;BME280;1730;41.932;25.548;2023-02-14T03:50:18;100521.28;;;-0.70;100.00
3434;BME280;1730;41.932;25.548;2023-02-14T03:52:46;100488.75;;;-0.99;100.00
3434;BME280;1730;41.932;25.548;2023-02-14T03:55:16;100582.81;;;-0.88;100.00
3434;BME280;1730;41.932;25.548;2023-02-14T03:57:57;100530.22;;;-0.99;100.00
3434;BME280;1730;41.932;25.548;2023-02-14T04:00:30;100526.34;;;-0.89;100.00
3434;BME280;1730;41.932;25.548;2023-02-14T04:03:01;100533.72;;;-0.99;100.00
3434;BME280;1730;41.932;25.548;2023-02-14T04:05:29;100530.31;;;-0.76;100.00
3434;BME280;1730;41.932;25.548;2023-02-14T04:07:57;100390.66;;;-1.68;100.00
3434;BME280;1730;41.932;25.548;2023-02-14T04:10:24;100491.50;;;-1.02;100.00
3434;BME280;1730;41.932;25.548;2023-02-14T04:12:52;99942.59;;;-4.82;100.00
3434;BME280;1730;41.932;25.548;2023-02-14T04:15:18;99851.91;;;-4.67;100.00
3434;BME280;1730;41.932;25.548;2023-02-14T04:17:44;100549.41;;;-0.93;100.00
3434;BME280;1730;41.932;25.548;2023-02-14T04:20:28;100511.81;;;-0.77;100.00
3434;BME280;1730;41.932;25.548;2023-02-14T04:22:54;100440.44;;;-1.30;100.00
3434;BME280;1730;41.932;25.548;2023-02-14T04:25:21;100504.25;;;-0.88;100.00
3434;BME280;1730;41.932;25.548;2023-02-14T04:27:47;100541.41;;;-0.91;100.00
3434;BME280;1730;41.932;25.548;2023-02-14T04:30:13;100509.72;;;-0.93;100.00
3434;BME280;1730;41.932;25.548;2023-02-14T04:32:39;100545.81;;;-0.92;100.00
3434;BME280;1730;41.932;25.548;2023-02-14T04:35:07;100383.88;;;-2.31;100.00
3434;BME280;1730;41.932;25.548;2023-02-14T04:37:33;100558.75;;;-1.09;100.00
3434;BME280;1730;41.932;25.548;2023-02-14T04:39:59;100539.19;;;-1.29;100.00
3434;BME280;1730;41.932;25.548;2023-02-14T04:42:25;100491.81;;;-1.11;100.00
3434;BME280;1730;41.932;25.548;2023-02-14T04:44:50;100524.91;;;-1.24;100.00
3434;BME280;1730;41.932;25.548;2023-02-14T04:47:16;100383.06;;;-1.79;100.00
3434;BME280;1730;41.932;25.548;2023-02-14T04:49:42;100537.59;;;-1.35;100.00
3434;BME280;1730;41.932;25.548;2023-02-14T04:52:09;100544.44;;;-1.28;100.00
3434;BME280;1730;41.932;25.548;2023-02-14T04:54:35;100133.16;;;-3.39;100.00
3434;BME280;1730;41.932;25.548;2023-02-14T04:57:00;100537.28;;;-1.26;100.00
3434;BME280;1730;41.932;25.548;2023-02-14T04:59:26;99793.19;;;-5.56;100.00
3434;BME280;1730;41.932;25.548;2023-02-14T05:01:54;100472.19;;;-1.05;100.00
3434;BME280;1730;41.932;25.548;2023-02-14T05:04:20;99865.53;;;-4.55;100.00
3434;BME280;1730;41.932;25.548;2023-02-14T05:06:46;99576.59;;;-6.58;100.00
3434;BME280;1730;41.932;25.548;2023-02-14T05:09:12;100543.16;;;-1.16;100.00
3434;BME280;1730;41.932;25.548;2023-02-14T05:11:38;99877.47;;;-4.17;100.00
3434;BME280;1730;41.932;25.548;2023-02-14T05:14:04;100278.09;;;-1.75;100.00
3434;BME280;1730;41.932;25.548;2023-02-14T05:16:30;99561.00;;;-6.63;100.00
3434;BME280;1730;41.932;25.548;2023-02-14T05:18:56;99793.94;;;-4.92;100.00
3434;BME280;1730;41.932;25.548;2023-02-14T05:21:22;100486.38;;;-1.06;100.00
3434;BME280;1730;41.932;25.548;2023-02-14T05:23:48;100480.69;;;-1.20;100.00
3434;BME280;1730;41.932;25.548;2023-02-14T05:26:15;100495.53;;;-1.16;100.00
3434;BME280;1730;41.932;25.548;2023-02-14T05:28:43;100462.34;;;-1.51;100.00
3434;BME280;1730;41.932;25.548;2023-02-14T05:31:10;100541.38;;;-1.42;100.00
3434;BME280;1730;41.932;25.548;2023-02-14T05:33:36;99807.41;;;-5.32;100.00
3434;BME280;1730;41.932;25.548;2023-02-14T05:36:03;100469.19;;;-0.95;100.00
3434;BME280;1730;41.932;25.548;2023-02-14T05:38:33;100460.69;;;-1.04;100.00
3434;BME280;1730;41.932;25.548;2023-02-14T05:41:00;100489.22;;;-0.87;100.00
3434;BME280;1730;41.932;25.548;2023-02-14T05:43:29;100456.00;;;-0.71;100.00
3434;BME280;1730;41.932;25.548;2023-02-14T05:45:58;100445.41;;;-0.71;100.00
3434;BME280;1730;41.932;25.548;2023-02-14T05:48:29;100443.09;;;-0.80;100.00
3434;BME280;1730;41.932;25.548;2023-02-14T05:51:09;100473.38;;;-0.64;100.00
3434;BME280;1730;41.932;25.548;2023-02-14T05:53:37;100449.34;;;-0.58;100.00
3434;BME280;1730;41.932;25.548;2023-02-14T05:56:04;100441.47;;;-0.61;100.00
3434;BME280;1730;41.932;25.548;2023-02-14T05:58:31;100449.56;;;-0.64;100.00
3434;BME280;1730;41.932;25.548;2023-02-14T06:00:57;100449.06;;;-0.27;100.00
3434;BME280;1730;41.932;25.548;2023-02-14T06:03:24;100466.25;;;-0.39;100.00
3434;BME280;1730;41.932;25.548;2023-02-14T06:05:50;100436.34;;;0.04;100.00
3434;BME280;1730;41.932;25.548;2023-02-14T06:08:17;100454.94;;;0.24;100.00
3434;BME280;1730;41.932;25.548;2023-02-14T06:10:42;100421.94;;;0.31;100.00
3434;BME280;1730;41.932;25.548;2023-02-14T06:13:09;100422.12;;;0.27;100.00
3434;BME280;1730;41.932;25.548;2023-02-14T06:15:36;100424.84;;;0.25;100.00
3434;BME280;1730;41.932;25.548;2023-02-14T06:18:03;100414.03;;;0.52;100.00
3434;BME280;1730;41.932;25.548;2023-02-14T06:20:29;100467.97;;;0.52;100.00
3434;BME280;1730;41.932;25.548;2023-02-14T06:22:56;100405.00;;;0.76;100.00
3434;BME280;1730;41.932;25.548;2023-02-14T06:25:24;100404.62;;;1.24;100.00
3434;BME280;1730;41.932;25.548;2023-02-14T06:27:54;100419.59;;;1.26;100.00
3434;BME280;1730;41.932;25.548;2023-02-14T06:30:20;100426.13;;;0.99;100.00
3434;BME280;1730;41.932;25.548;2023-02-14T06:32:46;100388.16;;;1.36;100.00
3434;BME280;1730;41.932;25.548;2023-02-14T06:35:13;100374.09;;;1.53;100.00
3434;BME280;1730;41.932;25.548;2023-02-14T06:37:39;100374.53;;;1.62;100.00
3434;BME280;1730;41.932;25.548;2023-02-14T06:40:08;100373.34;;;1.87;100.00
3434;BME280;1730;41.932;25.548;2023-02-14T06:42:36;100407.78;;;1.71;100.00
3434;BME280;1730;41.932;25.548;2023-02-14T06:45:04;100422.28;;;2.01;100.00
3434;BME280;1730;41.932;25.548;2023-02-14T06:47:29;99863.87;;;-1.10;100.00
3434;BME280;1730;41.932;25.548;2023-02-14T06:49:55;100374.16;;;2.42;100.00
3434;BME280;1730;41.932;25.548;2023-02-14T06:52:49;99900.75;;;-1.27;100.00
3434;BME280;1730;41.932;25.548;2023-02-14T06:56:14;100186.44;;;1.14;100.00
3434;BME280;1730;41.932;25.548;2023-02-14T06:59:06;100361.56;;;2.80;100.00
3434;BME280;1730;41.932;25.548;2023-02-14T07:01:35;100349.34;;;2.76;100.00
3434;BME280;1730;41.932;25.548;2023-02-14T07:04:07;100276.16;;;2.67;100.00
3434;BME280;1730;41.932;25.548;2023-02-14T07:06:39;100193.59;;;2.34;100.00
3434;BME280;1730;41.932;25.548;2023-02-14T07:09:11;100339.91;;;3.67;100.00
3434;BME280;1730;41.932;25.548;2023-02-14T07:11:49;100334.47;;;3.84;100.00
3434;BME280;1730;41.932;25.548;2023-02-14T07:14:18;100356.94;;;4.12;100.00
3434;BME280;1730;41.932;25.548;2023-02-14T07:16:44;100165.78;;;3.04;100.00
3434;BME280;1730;41.932;25.548;2023-02-14T07:19:27;100335.50;;;3.97;100.00
3434;BME280;1730;41.932;25.548;2023-02-14T07:27:08;100345.50;;;4.83;100.00
3434;BME280;1730;41.932;25.548;2023-02-14T07:29:37;99903.38;;;1.92;100.00
3434;BME280;1730;41.932;25.548;2023-02-14T07:32:17;100352.63;;;5.13;100.00
3434;BME280;1730;41.932;25.548;2023-02-14T07:35:15;100349.34;;;5.50;100.00
3434;BME280;1730;41.932;25.548;2023-02-14T07:37:55;100176.34;;;4.54;100.00
3434;BME280;1730;41.932;25.548;2023-02-14T07:40:27;99736.69;;;2.66;100.00
3434;BME280;1730;41.932;25.548;2023-02-14T07:43:04;100133.97;;;4.91;100.00
3434;BME280;1730;41.932;25.548;2023-02-14T07:45:36;100327.03;;;6.19;100.00
3434;BME280;1730;41.932;25.548;2023-02-14T07:48:07;99636.91;;;2.31;100.00
3434;BME280;1730;41.932;25.548;2023-02-14T07:57:05;100290.38;;;7.22;100.00
3434;BME280;1730;41.932;25.548;2023-02-14T08:07:17;100297.03;;;7.78;100.00
3434;BME280;1730;41.932;25.548;2023-02-14T08:09:42;100296.25;;;7.89;100.00
3434;BME280;1730;41.932;25.548;2023-02-14T08:12:10;100318.87;;;7.97;100.00
3434;BME280;1730;41.932;25.548;2023-02-14T08:14:55;100121.28;;;7.00;100.00
3434;BME280;1730;41.932;25.548;2023-02-14T08:17:40;100179.28;;;7.37;100.00
3434;BME280;1730;41.932;25.548;2023-02-14T08:20:07;100354.97;;;7.93;100.00
3434;BME280;1730;41.932;25.548;2023-02-14T08:22:34;100148.16;;;7.23;100.00
3434;BME280;1730;41.932;25.548;2023-02-14T08:25:01;99879.66;;;5.85;100.00
3434;BME280;1730;41.932;25.548;2023-02-14T08:27:27;99697.84;;;4.37;100.00
3434;BME280;1730;41.932;25.548;2023-02-14T08:29:55;100316.94;;;8.23;100.00
3434;BME280;1730;41.932;25.548;2023-02-14T08:32:22;100340.84;;;8.39;100.00
3434;BME280;1730;41.932;25.548;2023-02-14T08:35:03;100320.09;;;8.76;99.07
3434;BME280;1730;41.932;25.548;2023-02-14T08:37:53;99666.37;;;4.29;98.65
3434;BME280;1730;41.932;25.548;2023-02-14T08:40:29;100324.44;;;8.31;100.00
3434;BME280;1730;41.932;25.548;2023-02-14T08:42:55;100159.59;;;6.89;100.00
3434;BME280;1730;41.932;25.548;2023-02-14T08:45:25;100327.41;;;8.39;100.00
3434;BME280;1730;41.932;25.548;2023-02-14T08:47:51;100336.94;;;8.43;100.00
3434;BME280;1730;41.932;25.548;2023-02-14T08:50:17;100356.53;;;8.80;99.31
3434;BME280;1730;41.932;25.548;2023-02-14T08:52:44;100329.47;;;9.16;96.14
3434;BME280;1730;41.932;25.548;2023-02-14T08:55:11;99954.13;;;6.77;93.75
3434;BME280;1730;41.932;25.548;2023-02-14T08:57:39;100293.09;;;8.88;94.54
3434;BME280;1730;41.932;25.548;2023-02-14T09:00:07;99561.88;;;3.97;95.72
3434;BME280;1730;41.932;25.548;2023-02-14T09:02:34;99616.06;;;3.73;97.23
3434;BME280;1730;41.932;25.548;2023-02-14T09:05:01;100302.06;;;8.54;97.49
3434;BME280;1730;41.932;25.548;2023-02-14T09:07:28;100242.41;;;8.49;95.05
3434;BME280;1730;41.932;25.548;2023-02-14T09:09:55;100315.22;;;8.81;95.62
3434;BME280;1730;41.932;25.548;2023-02-14T09:12:21;100292.41;;;9.20;93.47
3434;BME280;1730;41.932;25.548;2023-02-14T09:14:46;100311.00;;;9.23;92.64
3434;BME280;1730;41.932;25.548;2023-02-14T09:17:14;100279.91;;;9.19;92.83
3434;BME280;1730;41.932;25.548;2023-02-14T09:20:03;100126.91;;;8.25;91.76
3434;BME280;1730;41.932;25.548;2023-02-14T09:22:33;99709.28;;;6.21;88.93
3434;BME280;1730;41.932;25.548;2023-02-14T09:25:04;100330.16;;;9.96;86.63
3434;BME280;1730;41.932;25.548;2023-02-14T09:27:32;100114.91;;;8.42;87.90
3434;BME280;1730;41.932;25.548;2023-02-14T09:29:59;100286.25;;;9.62;86.78
3434;BME280;1730;41.932;25.548;2023-02-14T09:32:51;99545.41;;;4.65;86.36
3434;BME280;1730;41.932;25.548;2023-02-14T09:35:16;100278.28;;;9.72;88.66
3434;BME280;1730;41.932;25.548;2023-02-14T09:38:01;100334.00;;;9.82;85.32
3434;BME280;1730;41.932;25.548;2023-02-14T09:40:46;100114.94;;;9.18;84.18
3434;BME280;1730;41.932;25.548;2023-02-14T09:45:56;100285.50;;;10.14;83.12
3434;BME280;1730;41.932;25.548;2023-02-14T09:48:38;100261.75;;;9.76;83.25
3434;BME280;1730;41.932;25.548;2023-02-14T09:51:26;100230.56;;;9.74;82.04
3434;BME280;1730;41.932;25.548;2023-02-14T09:54:10;100219.84;;;9.83;80.76
3434;BME280;1730;41.932;25.548;2023-02-14T09:59:16;100274.97;;;10.22;75.86
3434;BME280;1730;41.932;25.548;2023-02-14T10:05:12;100261.97;;;9.95;79.26
3434;BME280;1730;41.932;25.548;2023-02-14T10:07:56;100258.28;;;10.60;78.00
3434;BME280;1730;41.932;25.548;2023-02-14T10:10:32;100255.09;;;10.76;76.99
3434;BME280;1730;41.932;25.548;2023-02-14T10:13:15;100256.56;;;11.10;73.33
3434;BME280;1730;41.932;25.548;2023-02-14T10:15:45;100102.47;;;10.02;73.16
3434;BME280;1730;41.932;25.548;2023-02-14T10:18:24;100238.19;;;10.74;74.88
3434;BME280;1730;41.932;25.548;2023-02-14T10:20:54;100231.88;;;11.15;71.29
3434;BME280;1730;41.932;25.548;2023-02-14T10:23:35;100247.00;;;10.76;67.55
3434;BME280;1730;41.932;25.548;2023-02-14T10:26:26;100231.62;;;10.97;64.55
3434;BME280;1730;41.932;25.548;2023-02-14T10:28:54;100206.94;;;10.92;65.94
3434;BME280;1730;41.932;25.548;2023-02-14T10:31:25;100177.03;;;10.74;67.33
3434;BME280;1730;41.932;25.548;2023-02-14T10:34:14;100069.94;;;10.35;66.06
3434;BME280;1730;41.932;25.548;2023-02-14T10:39:56;100196.44;;;11.39;64.52
3434;BME280;1730;41.932;25.548;2023-02-14T10:48:03;100199.47;;;11.64;65.73
3434;BME280;1730;41.932;25.548;2023-02-14T10:50:43;100206.03;;;11.62;65.83
3434;BME280;1730;41.932;25.548;2023-02-14T10:58:26;100180.78;;;11.92;65.22
3434;BME280;1730;41.932;25.548;2023-02-14T11:01:07;100164.09;;;12.35;63.32
3434;BME280;1730;41.932;25.548;2023-02-14T11:03:36;100067.16;;;11.84;61.69
3434;BME280;1730;41.932;25.548;2023-02-14T11:06:05;99960.38;;;11.03;60.44
3434;BME280;1730;41.932;25.548;2023-02-14T11:08:33;100172.37;;;12.89;59.39
3434;BME280;1730;41.932;25.548;2023-02-14T11:11:13;100160.22;;;13.03;57.48
3434;BME280;1730;41.932;25.548;2023-02-14T11:13:41;100068.16;;;12.39;57.62
3434;BME280;1730;41.932;25.548;2023-02-14T11:16:12;99944.34;;;11.40;57.25
3434;BME280;1730;41.932;25.548;2023-02-14T11:18:43;100123.31;;;12.55;57.33
3434;BME280;1730;41.932;25.548;2023-02-14T11:21:14;100127.94;;;12.45;57.59
3434;BME280;1730;41.932;25.548;2023-02-14T11:23:49;100127.66;;;12.29;57.60
3434;BME280;1730;41.932;25.548;2023-02-14T11:26:23;100143.84;;;12.48;57.63
3434;BME280;1730;41.932;25.548;2023-02-14T11:29:02;100118.69;;;12.38;57.90
3434;BME280;1730;41.932;25.548;2023-02-14T11:31:37;100108.00;;;12.83;57.08
3434;BME280;1730;41.932;25.548;2023-02-14T11:36:53;99964.22;;;11.39;56.64
3434;BME280;1730;41.932;25.548;2023-02-14T11:41:56;99941.53;;;12.25;55.48
3434;BME280;1730;41.932;25.548;2023-02-14T11:44:25;99853.06;;;11.43;54.97
3434;BME280;1730;41.932;25.548;2023-02-14T11:46:52;99961.75;;;11.84;55.46
3434;BME280;1730;41.932;25.548;2023-02-14T11:49:30;100082.69;;;13.02;55.67
3434;BME280;1730;41.932;25.548;2023-02-14T11:51:59;100085.38;;;13.02;55.13
3434;BME280;1730;41.932;25.548;2023-02-14T11:57:00;100087.09;;;13.03;53.57
3434;BME280;1730;41.932;25.548;2023-02-14T11:59:44;100063.94;;;13.18;53.00
3434;BME280;1730;41.932;25.548;2023-02-14T12:02:38;100065.13;;;13.06;52.57
3434;BME280;1730;41.932;25.548;2023-02-14T12:07:52;99958.31;;;11.91;53.83
3434;BME280;1730;41.932;25.548;2023-02-14T12:10:27;100013.56;;;12.53;53.56
3434;BME280;1730;41.932;25.548;2023-02-14T12:13:03;100061.84;;;12.85;53.08
3434;BME280;1730;41.932;25.548;2023-02-14T12:15:55;100012.03;;;12.50;53.42
3434;BME280;1730;41.932;25.548;2023-02-14T12:18:40;100041.53;;;12.71;53.57
3434;BME280;1730;41.932;25.548;2023-02-14T12:21:33;100043.72;;;13.13;52.53
3434;BME280;1730;41.932;25.548;2023-02-14T12:24:11;99901.81;;;12.52;52.30
3434;BME280;1730;41.932;25.548;2023-02-14T12:26:52;99855.06;;;11.88;52.32
3434;BME280;1730;41.932;25.548;2023-02-14T12:32:10;99603.34;;;10.28;51.58
3434;BME280;1730;41.932;25.548;2023-02-14T12:34:37;100009.53;;;12.67;50.80
3434;BME280;1730;41.932;25.548;2023-02-14T12:46:21;100042.53;;;13.25;48.19
3434;BME280;1730;41.932;25.548;2023-02-14T12:49:04;100033.56;;;13.24;48.31
3434;BME280;1730;41.932;25.548;2023-02-14T13:03:17;100040.13;;;12.67;48.88
3434;BME280;1730;41.932;25.548;2023-02-14T13:06:23;100026.38;;;13.05;48.33
3434;BME280;1730;41.932;25.548;2023-02-14T13:22:30;100010.56;;;12.56;48.01
3434;BME280;1730;41.932;25.548;2023-02-14T13:25:03;100013.47;;;12.45;48.31
3434;BME280;1730;41.932;25.548;2023-02-14T13:27:37;100004.56;;;12.62;48.05
3434;BME280;1730;41.932;25.548;2023-02-14T13:30:12;100005.88;;;13.03;48.25
3434;BME280;1730;41.932;25.548;2023-02-14T13:32:44;99883.03;;;12.69;47.53
3434;BME280;1730;41.932;25.548;2023-02-14T13:35:17;99901.41;;;12.20;47.07
3434;BME280;1730;41.932;25.548;2023-02-14T13:37:53;100017.13;;;12.81;47.62
3434;BME280;1730;41.932;25.548;2023-02-14T13:40:22;100028.06;;;12.61;47.44
3434;BME280;1730;41.932;25.548;2023-02-14T13:42:52;100032.47;;;12.26;48.22
3434;BME280;1730;41.932;25.548;2023-02-14T13:50:39;100031.72;;;12.33;49.03
3434;BME280;1730;41.932;25.548;2023-02-14T13:53:44;100016.19;;;11.98;49.21
3434;BME280;1730;41.932;25.548;2023-02-14T13:58:55;100050.00;;;12.12;49.81
3434;BME280;1730;41.932;25.548;2023-02-14T14:01:39;100029.44;;;12.38;49.50
3434;BME280;1730;41.932;25.548;2023-02-14T14:09:53;100022.91;;;11.85;51.01
3434;BME280;1730;41.932;25.548;2023-02-14T14:12:40;100035.00;;;11.71;51.65
3434;BME280;1730;41.932;25.548;2023-02-14T14:17:35;100019.38;;;11.74;51.81
3434;BME280;1730;41.932;25.548;2023-02-14T14:23:22;100033.00;;;11.73;51.97
3434;BME280;1730;41.932;25.548;2023-02-14T14:25:54;100003.44;;;11.62;52.43
3434;BME280;1730;41.932;25.548;2023-02-14T14:28:22;100002.16;;;11.47;52.67
3434;BME280;1730;41.932;25.548;2023-02-14T14:30:49;100015.94;;;11.72;52.57
3434;BME280;1730;41.932;25.548;2023-02-14T14:33:31;100059.84;;;11.46;53.01
3434;BME280;1730;41.932;25.548;2023-02-14T14:36:05;99828.78;;;10.39;53.41
3434;BME280;1730;41.932;25.548;2023-02-14T14:38:33;100021.88;;;13.24;62.29
3434;BME280;1730;41.932;25.548;2023-02-14T14:40:59;99916.38;;;14.67;99.00
3434;BME280;1730;41.932;25.548;2023-02-14T14:43:33;100026.03;;;13.53;58.08
3434;BME280;1730;41.932;25.548;2023-02-14T14:46:09;100031.66;;;14.21;62.07
3434;BME280;1730;41.932;25.548;2023-02-14T14:48:42;100035.72;;;12.93;54.02
3434;BME280;1730;41.932;25.548;2023-02-14T14:51:21;100066.72;;;12.44;54.02
3434;BME280;1730;41.932;25.548;2023-02-14T14:53:52;99963.94;;;11.32;55.57
3434;BME280;1730;41.932;25.548;2023-02-14T14:56:23;99928.59;;;10.97;57.72
3434;BME280;1730;41.932;25.548;2023-02-14T14:58:50;100039.50;;;11.03;63.73
3434;BME280;1730;41.932;25.548;2023-02-14T15:01:31;100058.25;;;10.95;68.35
3434;BME280;1730;41.932;25.548;2023-02-14T15:06:38;100068.75;;;10.98;70.55
3434;BME280;1730;41.932;25.548;2023-02-14T15:09:29;100094.00;;;10.88;71.04
3434;BME280;1730;41.932;25.548;2023-02-14T15:11:57;100056.19;;;10.68;72.15
3434;BME280;1730;41.932;25.548;2023-02-14T15:14:44;99954.69;;;9.67;74.11
3434;BME280;1730;41.932;25.548;2023-02-14T15:17:24;100054.59;;;10.26;76.18
3434;BME280;1730;41.932;25.548;2023-02-14T15:19:54;100066.06;;;10.28;77.14
3434;BME280;1730;41.932;25.548;2023-02-14T15:22:31;100071.78;;;10.34;77.19
3434;BME280;1730;41.932;25.548;2023-02-14T15:25:07;99718.72;;;7.60;78.23
3434;BME280;1730;41.932;25.548;2023-02-14T15:27:39;100055.44;;;9.85;80.88
3434;BME280;1730;41.932;25.548;2023-02-14T15:32:45;100054.06;;;9.90;82.32
3434;BME280;1730;41.932;25.548;2023-02-14T15:35:14;100061.88;;;9.73;83.64
3434;BME280;1730;41.932;25.548;2023-02-14T15:37:43;100047.03;;;9.78;84.74
3434;BME280;1730;41.932;25.548;2023-02-14T15:40:21;100050.44;;;9.60;85.38
3434;BME280;1730;41.932;25.548;2023-02-14T15:42:48;100018.25;;;9.37;86.39
3434;BME280;1730;41.932;25.548;2023-02-14T15:48:30;100132.31;;;9.57;85.92
3434;BME280;1730;41.932;25.548;2023-02-14T15:50:59;100048.25;;;9.22;87.80
3434;BME280;1730;41.932;25.548;2023-02-14T15:56:23;100081.78;;;9.29;88.30
3434;BME280;1730;41.932;25.548;2023-02-14T15:59:19;100095.50;;;9.26;88.47
3434;BME280;1730;41.932;25.548;2023-02-14T16:04:23;100078.16;;;9.08;88.39
3434;BME280;1730;41.932;25.548;2023-02-14T16:10:22;100105.88;;;9.19;87.51
3434;BME280;1730;41.932;25.548;2023-02-14T16:13:06;100101.53;;;9.07;88.19
3434;BME280;1730;41.932;25.548;2023-02-14T16:15:34;100102.59;;;9.16;88.39
3434;BME280;1730;41.932;25.548;2023-02-14T16:18:39;100111.69;;;9.03;89.30